Beesel, Netherlands
Current Conditions -  °F | °C
As of 6:50 AM on Saturday 01 Nov 2014 (Local Time) from ETNG Reporting Station
Clear Clear  
Wind Chill: 48°   Ceiling: Unl
Heat Index: 48°   Visibility: 6mi
Dew Point: 46°   Wind: 3mph
Humidity: 93%   Direction: 130°SE
Pressure: 30.09"   Gusts: NA
Location:  51.27°N, 6.04°E
Report Text: ETNG 010550Z 13003KT CAVOK 09/08 Q1019
Loading
Personal Weather Stations






























Interactive Weather Map
Tropical Storm Tracking
New forecast layout! Learn more

10-Day Weather Forecast

Advertisements
Track Severe Weather on mobile